sensor_id;sensor_type;location;lat;lon;timestamp;temperature;humidity
22071;DHT22;11200;51.488;6.668;2023-09-18T00:00:50;19.80;99.90
22071;DHT22;11200;51.488;6.668;2023-09-18T00:03:19;19.90;99.90
22071;DHT22;11200;51.488;6.668;2023-09-18T00:05:49;19.80;99.90
22071;DHT22;11200;51.488;6.668;2023-09-18T00:08:16;20.30;99.90
22071;DHT22;11200;51.488;6.668;2023-09-18T00:10:42;19.80;99.90
22071;DHT22;11200;51.488;6.668;2023-09-18T00:13:08;19.80;99.90
22071;DHT22;11200;51.488;6.668;2023-09-18T00:15:33;19.80;99.90
22071;DHT22;11200;51.488;6.668;2023-09-18T00:17:59;19.80;99.90
22071;DHT22;11200;51.488;6.668;2023-09-18T00:20:25;19.80;99.90
22071;DHT22;11200;51.488;6.668;2023-09-18T00:22:55;19.80;99.90
22071;DHT22;11200;51.488;6.668;2023-09-18T00:25:24;19.80;99.90
22071;DHT22;11200;51.488;6.668;2023-09-18T00:27:50;19.80;99.90
22071;DHT22;11200;51.488;6.668;2023-09-18T00:30:17;19.80;99.90
22071;DHT22;11200;51.488;6.668;2023-09-18T00:32:42;19.80;99.90
22071;DHT22;11200;51.488;6.668;2023-09-18T00:35:08;19.80;99.90
22071;DHT22;11200;51.488;6.668;2023-09-18T00:37:34;19.80;99.90
22071;DHT22;11200;51.488;6.668;2023-09-18T00:40:01;19.70;99.90
22071;DHT22;11200;51.488;6.668;2023-09-18T00:42:27;19.80;99.90
22071;DHT22;11200;51.488;6.668;2023-09-18T00:44:53;19.80;99.90
22071;DHT22;11200;51.488;6.668;2023-09-18T00:47:19;19.70;99.90
22071;DHT22;11200;51.488;6.668;2023-09-18T00:49:48;19.70;99.90
22071;DHT22;11200;51.488;6.668;2023-09-18T00:52:15;19.70;99.90
22071;DHT22;11200;51.488;6.668;2023-09-18T00:54:42;19.70;99.90
22071;DHT22;11200;51.488;6.668;2023-09-18T00:57:09;19.70;99.90
22071;DHT22;11200;51.488;6.668;2023-09-18T00:59:36;19.70;99.90
22071;DHT22;11200;51.488;6.668;2023-09-18T01:02:02;19.70;99.90
22071;DHT22;11200;51.488;6.668;2023-09-18T01:04:29;19.30;99.90
22071;DHT22;11200;51.488;6.668;2023-09-18T01:06:55;19.60;99.90
22071;DHT22;11200;51.488;6.668;2023-09-18T01:09:23;19.60;99.90
22071;DHT22;11200;51.488;6.668;2023-09-18T01:16:57;19.60;99.90
22071;DHT22;11200;51.488;6.668;2023-09-18T01:19:40;19.60;99.90
22071;DHT22;11200;51.488;6.668;2023-09-18T01:22:07;19.60;99.90
22071;DHT22;11200;51.488;6.668;2023-09-18T01:24:34;19.50;99.90
22071;DHT22;11200;51.488;6.668;2023-09-18T01:27:00;19.50;99.90
22071;DHT22;11200;51.488;6.668;2023-09-18T01:29:26;19.60;99.90
22071;DHT22;11200;51.488;6.668;2023-09-18T01:31:52;19.50;99.90
22071;DHT22;11200;51.488;6.668;2023-09-18T01:34:32;19.60;99.90
22071;DHT22;11200;51.488;6.668;2023-09-18T01:36:59;19.50;99.90
22071;DHT22;11200;51.488;6.668;2023-09-18T01:39:27;19.50;99.90
22071;DHT22;11200;51.488;6.668;2023-09-18T01:41:59;19.50;99.90
22071;DHT22;11200;51.488;6.668;2023-09-18T01:44:27;19.50;99.90
22071;DHT22;11200;51.488;6.668;2023-09-18T01:46:53;19.40;99.90
22071;DHT22;11200;51.488;6.668;2023-09-18T01:49:34;19.40;99.90
22071;DHT22;11200;51.488;6.668;2023-09-18T01:52:00;19.40;99.90
22071;DHT22;11200;51.488;6.668;2023-09-18T01:54:26;19.40;99.90
22071;DHT22;11200;51.488;6.668;2023-09-18T01:56:52;19.40;99.90
22071;DHT22;11200;51.488;6.668;2023-09-18T01:59:22;19.30;99.90
22071;DHT22;11200;51.488;6.668;2023-09-18T02:01:49;19.40;99.90
22071;DHT22;11200;51.488;6.668;2023-09-18T02:04:14;19.40;99.90
22071;DHT22;11200;51.488;6.668;2023-09-18T02:06:40;19.40;99.90
22071;DHT22;11200;51.488;6.668;2023-09-18T02:09:06;19.30;99.90
22071;DHT22;11200;51.488;6.668;2023-09-18T02:11:40;19.30;99.90
22071;DHT22;11200;51.488;6.668;2023-09-18T02:14:05;19.30;99.90
22071;DHT22;11200;51.488;6.668;2023-09-18T02:16:35;19.30;99.90
22071;DHT22;11200;51.488;6.668;2023-09-18T02:19:02;19.30;99.90
22071;DHT22;11200;51.488;6.668;2023-09-18T02:21:27;19.30;99.90
22071;DHT22;11200;51.488;6.668;2023-09-18T02:23:53;19.30;99.90
22071;DHT22;11200;51.488;6.668;2023-09-18T02:26:21;19.30;99.90
22071;DHT22;11200;51.488;6.668;2023-09-18T02:28:46;19.30;99.90
22071;DHT22;11200;51.488;6.668;2023-09-18T02:31:12;19.30;99.90
22071;DHT22;11200;51.488;6.668;2023-09-18T02:33:38;19.30;99.90
22071;DHT22;11200;51.488;6.668;2023-09-18T02:36:05;19.30;99.90
22071;DHT22;11200;51.488;6.668;2023-09-18T02:38:30;19.30;99.90
22071;DHT22;11200;51.488;6.668;2023-09-18T02:40:56;19.40;99.90
22071;DHT22;11200;51.488;6.668;2023-09-18T02:43:23;19.30;99.90
22071;DHT22;11200;51.488;6.668;2023-09-18T02:45:49;19.30;99.90
22071;DHT22;11200;51.488;6.668;2023-09-18T02:48:16;19.40;99.90
22071;DHT22;11200;51.488;6.668;2023-09-18T02:50:42;19.40;99.90
22071;DHT22;11200;51.488;6.668;2023-09-18T02:53:16;19.40;99.90
22071;DHT22;11200;51.488;6.668;2023-09-18T02:55:42;19.40;99.90
22071;DHT22;11200;51.488;6.668;2023-09-18T02:58:08;19.40;99.90
22071;DHT22;11200;51.488;6.668;2023-09-18T03:00:41;19.40;99.90
22071;DHT22;11200;51.488;6.668;2023-09-18T03:03:08;19.30;99.90
22071;DHT22;11200;51.488;6.668;2023-09-18T03:05:34;19.40;99.90
22071;DHT22;11200;51.488;6.668;2023-09-18T03:08:00;19.40;99.90
22071;DHT22;11200;51.488;6.668;2023-09-18T03:10:25;19.40;99.90
22071;DHT22;11200;51.488;6.668;2023-09-18T03:12:51;19.40;99.90
22071;DHT22;11200;51.488;6.668;2023-09-18T03:15:16;19.40;99.90
22071;DHT22;11200;51.488;6.668;2023-09-18T03:17:42;19.40;99.90
22071;DHT22;11200;51.488;6.668;2023-09-18T03:20:08;19.40;99.90
22071;DHT22;11200;51.488;6.668;2023-09-18T03:22:35;19.40;99.90
22071;DHT22;11200;51.488;6.668;2023-09-18T03:25:01;19.40;99.90
22071;DHT22;11200;51.488;6.668;2023-09-18T03:27:28;19.50;99.90
22071;DHT22;11200;51.488;6.668;2023-09-18T03:30:03;19.40;99.90
22071;DHT22;11200;51.488;6.668;2023-09-18T03:32:29;19.40;99.90
22071;DHT22;11200;51.488;6.668;2023-09-18T03:34:55;19.50;99.90
22071;DHT22;11200;51.488;6.668;2023-09-18T03:37:21;19.70;99.90
22071;DHT22;11200;51.488;6.668;2023-09-18T03:39:46;19.50;99.90
22071;DHT22;11200;51.488;6.668;2023-09-18T03:42:12;19.60;99.90
22071;DHT22;11200;51.488;6.668;2023-09-18T03:44:38;19.60;99.90
22071;DHT22;11200;51.488;6.668;2023-09-18T03:47:03;19.60;99.90
22071;DHT22;11200;51.488;6.668;2023-09-18T03:49:29;19.60;99.90
22071;DHT22;11200;51.488;6.668;2023-09-18T03:51:55;19.60;99.90
22071;DHT22;11200;51.488;6.668;2023-09-18T03:54:20;19.60;99.90
22071;DHT22;11200;51.488;6.668;2023-09-18T03:56:46;19.70;99.90
22071;DHT22;11200;51.488;6.668;2023-09-18T03:59:14;19.70;99.90
22071;DHT22;11200;51.488;6.668;2023-09-18T04:01:40;19.70;99.90
22071;DHT22;11200;51.488;6.668;2023-09-18T04:04:08;20.00;99.90
22071;DHT22;11200;51.488;6.668;2023-09-18T04:06:57;19.70;99.90
22071;DHT22;11200;51.488;6.668;2023-09-18T04:09:25;19.70;99.90
22071;DHT22;11200;51.488;6.668;2023-09-18T04:11:53;19.40;99.90
22071;DHT22;11200;51.488;6.668;2023-09-18T04:14:23;19.90;99.90
22071;DHT22;11200;51.488;6.668;2023-09-18T04:16:49;19.80;99.90
22071;DHT22;11200;51.488;6.668;2023-09-18T04:19:14;19.80;99.90
22071;DHT22;11200;51.488;6.668;2023-09-18T04:21:40;19.90;99.90
22071;DHT22;11200;51.488;6.668;2023-09-18T04:24:06;19.90;99.90
22071;DHT22;11200;51.488;6.668;2023-09-18T04:26:31;19.90;99.90
22071;DHT22;11200;51.488;6.668;2023-09-18T04:28:59;19.90;99.90
22071;DHT22;11200;51.488;6.668;2023-09-18T04:31:25;20.00;99.90
22071;DHT22;11200;51.488;6.668;2023-09-18T04:33:51;19.90;99.90
22071;DHT22;11200;51.488;6.668;2023-09-18T04:36:16;20.00;99.90
22071;DHT22;11200;51.488;6.668;2023-09-18T04:38:42;19.90;99.90
22071;DHT22;11200;51.488;6.668;2023-09-18T04:41:10;19.90;99.90
22071;DHT22;11200;51.488;6.668;2023-09-18T04:43:37;19.90;99.90
22071;DHT22;11200;51.488;6.668;2023-09-18T04:46:04;19.90;99.90
22071;DHT22;11200;51.488;6.668;2023-09-18T04:48:30;19.90;99.90
22071;DHT22;11200;51.488;6.668;2023-09-18T04:50:57;19.90;99.90
22071;DHT22;11200;51.488;6.668;2023-09-18T04:53:23;20.00;99.90
22071;DHT22;11200;51.488;6.668;2023-09-18T04:55:49;19.90;99.90
22071;DHT22;11200;51.488;6.668;2023-09-18T04:58:18;20.00;99.90
22071;DHT22;11200;51.488;6.668;2023-09-18T05:00:44;20.30;99.90
22071;DHT22;11200;51.488;6.668;2023-09-18T05:03:11;20.00;99.90
22071;DHT22;11200;51.488;6.668;2023-09-18T05:05:38;20.00;99.90
22071;DHT22;11200;51.488;6.668;2023-09-18T05:08:07;20.00;99.90
22071;DHT22;11200;51.488;6.668;2023-09-18T05:10:36;20.00;99.90
22071;DHT22;11200;51.488;6.668;2023-09-18T05:13:02;20.00;99.90
22071;DHT22;11200;51.488;6.668;2023-09-18T05:15:28;20.00;99.90
22071;DHT22;11200;51.488;6.668;2023-09-18T05:17:55;20.00;99.90
22071;DHT22;11200;51.488;6.668;2023-09-18T05:20:26;20.00;99.90
22071;DHT22;11200;51.488;6.668;2023-09-18T05:22:54;20.00;99.90
22071;DHT22;11200;51.488;6.668;2023-09-18T05:25:23;20.00;99.90
22071;DHT22;11200;51.488;6.668;2023-09-18T05:27:53;20.00;99.90
22071;DHT22;11200;51.488;6.668;2023-09-18T05:30:29;20.00;99.90
22071;DHT22;11200;51.488;6.668;2023-09-18T05:32:56;20.00;99.90
22071;DHT22;11200;51.488;6.668;2023-09-18T05:35:22;20.00;99.90
22071;DHT22;11200;51.488;6.668;2023-09-18T05:37:49;19.90;99.90
22071;DHT22;11200;51.488;6.668;2023-09-18T05:40:15;20.00;99.90
22071;DHT22;11200;51.488;6.668;2023-09-18T05:42:42;20.00;99.90
22071;DHT22;11200;51.488;6.668;2023-09-18T05:45:11;20.00;99.90
22071;DHT22;11200;51.488;6.668;2023-09-18T05:47:37;20.00;99.90
22071;DHT22;11200;51.488;6.668;2023-09-18T05:50:08;20.00;99.90
22071;DHT22;11200;51.488;6.668;2023-09-18T05:52:34;20.00;99.90
22071;DHT22;11200;51.488;6.668;2023-09-18T05:55:01;20.00;99.90
22071;DHT22;11200;51.488;6.668;2023-09-18T05:57:27;20.00;99.90
22071;DHT22;11200;51.488;6.668;2023-09-18T05:59:57;20.00;99.90
22071;DHT22;11200;51.488;6.668;2023-09-18T06:02:23;20.00;99.90
22071;DHT22;11200;51.488;6.668;2023-09-18T06:04:54;20.00;99.90
22071;DHT22;11200;51.488;6.668;2023-09-18T06:07:21;20.00;99.90
22071;DHT22;11200;51.488;6.668;2023-09-18T06:09:48;20.10;99.90
22071;DHT22;11200;51.488;6.668;2023-09-18T06:12:14;20.00;99.90
22071;DHT22;11200;51.488;6.668;2023-09-18T06:14:39;20.00;99.90
22071;DHT22;11200;51.488;6.668;2023-09-18T06:17:05;20.00;99.90
22071;DHT22;11200;51.488;6.668;2023-09-18T06:19:32;20.00;99.90
22071;DHT22;11200;51.488;6.668;2023-09-18T06:21:58;20.00;99.90
22071;DHT22;11200;51.488;6.668;2023-09-18T06:24:24;20.00;99.90
22071;DHT22;11200;51.488;6.668;2023-09-18T06:26:49;20.00;99.90
22071;DHT22;11200;51.488;6.668;2023-09-18T06:29:16;20.00;99.90
22071;DHT22;11200;51.488;6.668;2023-09-18T06:31:42;20.00;99.90
22071;DHT22;11200;51.488;6.668;2023-09-18T06:34:07;20.00;99.90
22071;DHT22;11200;51.488;6.668;2023-09-18T06:36:33;20.00;99.90
22071;DHT22;11200;51.488;6.668;2023-09-18T06:39:02;20.10;99.90
22071;DHT22;11200;51.488;6.668;2023-09-18T06:41:27;21.00;99.90
22071;DHT22;11200;51.488;6.668;2023-09-18T06:43:53;20.10;99.90
22071;DHT22;11200;51.488;6.668;2023-09-18T06:46:19;20.10;99.90
22071;DHT22;11200;51.488;6.668;2023-09-18T06:48:44;20.10;99.90
22071;DHT22;11200;51.488;6.668;2023-09-18T06:51:15;20.10;99.90
22071;DHT22;11200;51.488;6.668;2023-09-18T06:53:41;20.10;99.90
22071;DHT22;11200;51.488;6.668;2023-09-18T06:56:06;20.10;99.90
22071;DHT22;11200;51.488;6.668;2023-09-18T06:58:32;20.10;99.90
22071;DHT22;11200;51.488;6.668;2023-09-18T07:00:57;20.10;99.90
22071;DHT22;11200;51.488;6.668;2023-09-18T07:03:23;20.20;99.90
22071;DHT22;11200;51.488;6.668;2023-09-18T07:05:49;20.20;99.90
22071;DHT22;11200;51.488;6.668;2023-09-18T07:08:14;20.20;99.90
22071;DHT22;11200;51.488;6.668;2023-09-18T07:10:44;20.20;99.90
22071;DHT22;11200;51.488;6.668;2023-09-18T07:13:10;20.20;99.90
22071;DHT22;11200;51.488;6.668;2023-09-18T07:15:37;20.30;99.90
22071;DHT22;11200;51.488;6.668;2023-09-18T07:18:03;20.20;99.90
22071;DHT22;11200;51.488;6.668;2023-09-18T07:20:29;20.30;99.90
22071;DHT22;11200;51.488;6.668;2023-09-18T07:22:55;20.30;99.90
22071;DHT22;11200;51.488;6.668;2023-09-18T07:25:21;20.30;99.90
22071;DHT22;11200;51.488;6.668;2023-09-18T07:27:47;20.30;99.90
22071;DHT22;11200;51.488;6.668;2023-09-18T07:30:14;20.30;99.90
22071;DHT22;11200;51.488;6.668;2023-09-18T07:32:45;20.40;99.90
22071;DHT22;11200;51.488;6.668;2023-09-18T07:35:11;20.20;99.90
22071;DHT22;11200;51.488;6.668;2023-09-18T07:37:39;20.40;99.90
22071;DHT22;11200;51.488;6.668;2023-09-18T07:40:06;20.40;99.90
22071;DHT22;11200;51.488;6.668;2023-09-18T07:42:32;20.40;99.90
22071;DHT22;11200;51.488;6.668;2023-09-18T07:44:57;20.40;99.90
22071;DHT22;11200;51.488;6.668;2023-09-18T07:47:23;20.50;99.90
22071;DHT22;11200;51.488;6.668;2023-09-18T07:49:49;20.50;99.90
22071;DHT22;11200;51.488;6.668;2023-09-18T07:52:16;20.40;99.90
22071;DHT22;11200;51.488;6.668;2023-09-18T07:54:42;20.50;99.90
22071;DHT22;11200;51.488;6.668;2023-09-18T07:57:08;20.50;99.90
22071;DHT22;11200;51.488;6.668;2023-09-18T07:59:37;20.50;99.90
22071;DHT22;11200;51.488;6.668;2023-09-18T08:02:04;20.50;99.90
22071;DHT22;11200;51.488;6.668;2023-09-18T08:04:33;20.50;99.90
22071;DHT22;11200;51.488;6.668;2023-09-18T08:06:59;20.50;99.90
22071;DHT22;11200;51.488;6.668;2023-09-18T08:09:25;20.50;99.90
22071;DHT22;11200;51.488;6.668;2023-09-18T08:11:51;20.40;99.90
22071;DHT22;11200;51.488;6.668;2023-09-18T08:14:22;20.60;99.90
22071;DHT22;11200;51.488;6.668;2023-09-18T08:16:47;20.60;99.90
22071;DHT22;11200;51.488;6.668;2023-09-18T08:19:16;20.60;99.90
22071;DHT22;11200;51.488;6.668;2023-09-18T08:21:45;20.60;99.90
22071;DHT22;11200;51.488;6.668;2023-09-18T08:24:11;20.70;99.90
22071;DHT22;11200;51.488;6.668;2023-09-18T08:26:37;20.70;99.90
22071;DHT22;11200;51.488;6.668;2023-09-18T08:29:03;20.60;99.90
22071;DHT22;11200;51.488;6.668;2023-09-18T08:31:29;20.70;99.90
22071;DHT22;11200;51.488;6.668;2023-09-18T08:33:57;20.70;99.90
22071;DHT22;11200;51.488;6.668;2023-09-18T08:36:22;20.70;99.90
22071;DHT22;11200;51.488;6.668;2023-09-18T08:38:48;20.80;99.90
22071;DHT22;11200;51.488;6.668;2023-09-18T08:41:16;20.80;99.90
22071;DHT22;11200;51.488;6.668;2023-09-18T08:43:43;20.80;99.90
22071;DHT22;11200;51.488;6.668;2023-09-18T08:46:10;20.90;99.90
22071;DHT22;11200;51.488;6.668;2023-09-18T08:48:36;20.90;99.90
22071;DHT22;11200;51.488;6.668;2023-09-18T08:51:03;20.90;99.90
22071;DHT22;11200;51.488;6.668;2023-09-18T08:53:34;20.90;99.90
22071;DHT22;11200;51.488;6.668;2023-09-18T08:56:02;21.00;99.90
22071;DHT22;11200;51.488;6.668;2023-09-18T08:58:34;21.00;99.90
22071;DHT22;11200;51.488;6.668;2023-09-18T09:01:02;21.00;99.90
22071;DHT22;11200;51.488;6.668;2023-09-18T09:03:29;21.00;99.90
22071;DHT22;11200;51.488;6.668;2023-09-18T09:05:56;21.10;99.90
22071;DHT22;11200;51.488;6.668;2023-09-18T09:08:22;21.10;99.90
22071;DHT22;11200;51.488;6.668;2023-09-18T09:10:48;21.10;99.90
22071;DHT22;11200;51.488;6.668;2023-09-18T09:13:15;21.20;99.90
22071;DHT22;11200;51.488;6.668;2023-09-18T09:15:45;21.20;99.90
22071;DHT22;11200;51.488;6.668;2023-09-18T09:18:11;21.20;99.90
22071;DHT22;11200;51.488;6.668;2023-09-18T09:20:37;21.20;99.90
22071;DHT22;11200;51.488;6.668;2023-09-18T09:23:07;21.20;99.90
22071;DHT22;11200;51.488;6.668;2023-09-18T09:25:33;21.20;99.90
22071;DHT22;11200;51.488;6.668;2023-09-18T09:28:01;21.40;99.90
22071;DHT22;11200;51.488;6.668;2023-09-18T09:30:29;21.40;99.90
22071;DHT22;11200;51.488;6.668;2023-09-18T09:32:58;21.40;99.90
22071;DHT22;11200;51.488;6.668;2023-09-18T09:35:29;21.40;99.90
22071;DHT22;11200;51.488;6.668;2023-09-18T09:38:17;21.40;99.90
22071;DHT22;11200;51.488;6.668;2023-09-18T09:40:45;21.20;99.90
22071;DHT22;11200;51.488;6.668;2023-09-18T09:43:12;21.50;99.90
22071;DHT22;11200;51.488;6.668;2023-09-18T09:45:42;21.50;99.90
22071;DHT22;11200;51.488;6.668;2023-09-18T09:48:08;21.60;99.90
22071;DHT22;11200;51.488;6.668;2023-09-18T09:50:45;21.60;99.90
22071;DHT22;11200;51.488;6.668;2023-09-18T09:53:12;21.70;99.90
22071;DHT22;11200;51.488;6.668;2023-09-18T09:55:38;21.80;99.90
22071;DHT22;11200;51.488;6.668;2023-09-18T09:58:05;21.80;99.90
22071;DHT22;11200;51.488;6.668;2023-09-18T10:00:36;21.90;99.90
22071;DHT22;11200;51.488;6.668;2023-09-18T10:03:12;22.00;99.90
22071;DHT22;11200;51.488;6.668;2023-09-18T10:05:39;21.90;99.90
22071;DHT22;11200;51.488;6.668;2023-09-18T10:08:10;22.00;99.90
22071;DHT22;11200;51.488;6.668;2023-09-18T10:10:40;22.10;99.90
22071;DHT22;11200;51.488;6.668;2023-09-18T10:13:26;22.10;99.90
22071;DHT22;11200;51.488;6.668;2023-09-18T10:15:53;22.20;99.90
22071;DHT22;11200;51.488;6.668;2023-09-18T10:18:34;22.30;99.90
22071;DHT22;11200;51.488;6.668;2023-09-18T10:21:28;22.40;99.90
22071;DHT22;11200;51.488;6.668;2023-09-18T10:26:51;22.60;99.90
22071;DHT22;11200;51.488;6.668;2023-09-18T10:29:19;22.70;99.90
22071;DHT22;11200;51.488;6.668;2023-09-18T10:31:47;22.70;99.90
22071;DHT22;11200;51.488;6.668;2023-09-18T10:34:13;22.80;99.90
22071;DHT22;11200;51.488;6.668;2023-09-18T10:36:43;22.90;99.90
22071;DHT22;11200;51.488;6.668;2023-09-18T10:39:11;23.10;99.90
22071;DHT22;11200;51.488;6.668;2023-09-18T10:41:38;23.20;99.90
22071;DHT22;11200;51.488;6.668;2023-09-18T10:46:30;23.50;99.90
22071;DHT22;11200;51.488;6.668;2023-09-18T10:48:59;23.60;99.90
22071;DHT22;11200;51.488;6.668;2023-09-18T10:51:25;23.70;99.90
22071;DHT22;11200;51.488;6.668;2023-09-18T10:53:51;23.80;99.90
22071;DHT22;11200;51.488;6.668;2023-09-18T10:56:20;23.80;99.90
22071;DHT22;11200;51.488;6.668;2023-09-18T10:58:45;23.90;99.90
22071;DHT22;11200;51.488;6.668;2023-09-18T11:01:14;24.00;99.90
22071;DHT22;11200;51.488;6.668;2023-09-18T11:03:40;24.10;99.90
22071;DHT22;11200;51.488;6.668;2023-09-18T11:06:10;24.20;99.90
22071;DHT22;11200;51.488;6.668;2023-09-18T11:08:46;24.30;99.90
22071;DHT22;11200;51.488;6.668;2023-09-18T11:11:13;24.40;99.90
22071;DHT22;11200;51.488;6.668;2023-09-18T11:13:52;24.50;99.90
22071;DHT22;11200;51.488;6.668;2023-09-18T11:18:56;24.70;99.90
22071;DHT22;11200;51.488;6.668;2023-09-18T11:21:31;24.70;99.90
22071;DHT22;11200;51.488;6.668;2023-09-18T11:24:09;24.90;99.90
22071;DHT22;11200;51.488;6.668;2023-09-18T11:26:42;24.90;99.90
22071;DHT22;11200;51.488;6.668;2023-09-18T11:29:10;25.00;99.90
22071;DHT22;11200;51.488;6.668;2023-09-18T11:31:47;25.00;99.90
22071;DHT22;11200;51.488;6.668;2023-09-18T11:34:26;25.10;99.90
22071;DHT22;11200;51.488;6.668;2023-09-18T11:36:54;25.10;99.90
22071;DHT22;11200;51.488;6.668;2023-09-18T11:39:35;25.20;99.90
22071;DHT22;11200;51.488;6.668;2023-09-18T11:42:18;25.20;99.90
22071;DHT22;11200;51.488;6.668;2023-09-18T11:44:45;25.20;99.90
22071;DHT22;11200;51.488;6.668;2023-09-18T11:47:18;25.30;99.90
22071;DHT22;11200;51.488;6.668;2023-09-18T11:49:52;25.50;99.90
22071;DHT22;11200;51.488;6.668;2023-09-18T11:52:21;25.50;99.90
22071;DHT22;11200;51.488;6.668;2023-09-18T11:54:47;25.60;99.90
22071;DHT22;11200;51.488;6.668;2023-09-18T11:57:14;25.70;99.90
22071;DHT22;11200;51.488;6.668;2023-09-18T11:59:43;25.80;99.90
22071;DHT22;11200;51.488;6.668;2023-09-18T12:02:17;25.90;99.90
22071;DHT22;11200;51.488;6.668;2023-09-18T12:04:53;25.90;99.90
22071;DHT22;11200;51.488;6.668;2023-09-18T12:07:19;25.90;99.90
22071;DHT22;11200;51.488;6.668;2023-09-18T12:09:45;25.90;99.90
22071;DHT22;11200;51.488;6.668;2023-09-18T12:12:11;26.00;99.90
22071;DHT22;11200;51.488;6.668;2023-09-18T12:14:40;26.00;99.90
22071;DHT22;11200;51.488;6.668;2023-09-18T12:17:08;26.10;99.90
22071;DHT22;11200;51.488;6.668;2023-09-18T12:19:34;26.10;99.90
22071;DHT22;11200;51.488;6.668;2023-09-18T12:22:01;26.20;99.90
22071;DHT22;11200;51.488;6.668;2023-09-18T12:24:27;26.20;99.90
22071;DHT22;11200;51.488;6.668;2023-09-18T12:26:54;26.30;99.90
22071;DHT22;11200;51.488;6.668;2023-09-18T12:29:23;26.40;99.90
22071;DHT22;11200;51.488;6.668;2023-09-18T12:31:49;26.40;99.90
22071;DHT22;11200;51.488;6.668;2023-09-18T12:34:19;26.40;99.90
22071;DHT22;11200;51.488;6.668;2023-09-18T12:36:50;26.50;99.90
22071;DHT22;11200;51.488;6.668;2023-09-18T12:39:16;26.50;99.90
22071;DHT22;11200;51.488;6.668;2023-09-18T12:41:46;26.50;99.90
22071;DHT22;11200;51.488;6.668;2023-09-18T12:44:13;26.60;99.90
22071;DHT22;11200;51.488;6.668;2023-09-18T12:46:42;26.60;99.90
22071;DHT22;11200;51.488;6.668;2023-09-18T12:49:21;26.70;99.90
22071;DHT22;11200;51.488;6.668;2023-09-18T12:52:01;26.60;99.90
22071;DHT22;11200;51.488;6.668;2023-09-18T12:54:45;26.70;99.90
22071;DHT22;11200;51.488;6.668;2023-09-18T12:57:17;26.70;99.90
22071;DHT22;11200;51.488;6.668;2023-09-18T12:59:43;26.70;99.90
22071;DHT22;11200;51.488;6.668;2023-09-18T13:02:13;26.70;99.90
22071;DHT22;11200;51.488;6.668;2023-09-18T13:04:39;26.70;99.90
22071;DHT22;11200;51.488;6.668;2023-09-18T13:07:13;26.70;99.90
22071;DHT22;11200;51.488;6.668;2023-09-18T13:10:05;26.70;99.90
22071;DHT22;11200;51.488;6.668;2023-09-18T13:12:49;26.70;99.90
22071;DHT22;11200;51.488;6.668;2023-09-18T13:15:31;26.60;99.90
22071;DHT22;11200;51.488;6.668;2023-09-18T13:18:10;26.60;99.90
22071;DHT22;11200;51.488;6.668;2023-09-18T13:20:37;26.60;99.90
22071;DHT22;11200;51.488;6.668;2023-09-18T13:23:02;26.40;99.90
22071;DHT22;11200;51.488;6.668;2023-09-18T13:28:02;26.40;99.90
22071;DHT22;11200;51.488;6.668;2023-09-18T13:30:29;26.30;99.90
22071;DHT22;11200;51.488;6.668;2023-09-18T13:35:43;26.20;99.90
22071;DHT22;11200;51.488;6.668;2023-09-18T13:38:10;26.10;99.90
22071;DHT22;11200;51.488;6.668;2023-09-18T13:40:48;26.00;99.90
22071;DHT22;11200;51.488;6.668;2023-09-18T13:43:18;26.10;99.90
22071;DHT22;11200;51.488;6.668;2023-09-18T13:45:50;26.20;99.90
22071;DHT22;11200;51.488;6.668;2023-09-18T13:48:23;25.90;99.90
22071;DHT22;11200;51.488;6.668;2023-09-18T13:50:50;26.20;99.90
22071;DHT22;11200;51.488;6.668;2023-09-18T13:53:16;25.80;99.90
22071;DHT22;11200;51.488;6.668;2023-09-18T13:55:42;25.80;99.90
22071;DHT22;11200;51.488;6.668;2023-09-18T13:58:08;25.70;99.90
22071;DHT22;11200;51.488;6.668;2023-09-18T14:00:34;25.40;99.90
22071;DHT22;11200;51.488;6.668;2023-09-18T14:03:01;25.80;99.90
22071;DHT22;11200;51.488;6.668;2023-09-18T14:05:28;26.00;99.90
22071;DHT22;11200;51.488;6.668;2023-09-18T14:07:55;25.90;99.90
22071;DHT22;11200;51.488;6.668;2023-09-18T14:10:26;25.90;99.90
22071;DHT22;11200;51.488;6.668;2023-09-18T14:12:52;25.60;99.90
22071;DHT22;11200;51.488;6.668;2023-09-18T14:15:18;25.50;99.90
22071;DHT22;11200;51.488;6.668;2023-09-18T14:17:44;25.50;99.90
22071;DHT22;11200;51.488;6.668;2023-09-18T14:20:12;25.70;99.90
22071;DHT22;11200;51.488;6.668;2023-09-18T14:22:38;25.60;99.90
22071;DHT22;11200;51.488;6.668;2023-09-18T14:25:04;25.60;99.90
22071;DHT22;11200;51.488;6.668;2023-09-18T14:27:34;25.40;99.90
22071;DHT22;11200;51.488;6.668;2023-09-18T14:30:00;25.80;99.90
22071;DHT22;11200;51.488;6.668;2023-09-18T14:32:31;25.50;99.90
22071;DHT22;11200;51.488;6.668;2023-09-18T14:34:57;25.20;99.90
22071;DHT22;11200;51.488;6.668;2023-09-18T14:37:26;25.10;99.90
22071;DHT22;11200;51.488;6.668;2023-09-18T14:39:52;25.20;99.90
22071;DHT22;11200;51.488;6.668;2023-09-18T14:42:18;24.10;99.90
22071;DHT22;11200;51.488;6.668;2023-09-18T14:44:43;25.10;99.90
22071;DHT22;11200;51.488;6.668;2023-09-18T14:47:11;24.90;99.90
22071;DHT22;11200;51.488;6.668;2023-09-18T14:49:37;24.90;99.90
22071;DHT22;11200;51.488;6.668;2023-09-18T14:52:04;25.40;99.90
22071;DHT22;11200;51.488;6.668;2023-09-18T14:54:30;25.10;99.90
22071;DHT22;11200;51.488;6.668;2023-09-18T14:56:56;24.80;99.90
22071;DHT22;11200;51.488;6.668;2023-09-18T14:59:21;25.00;99.90
22071;DHT22;11200;51.488;6.668;2023-09-18T15:01:47;24.70;99.90
22071;DHT22;11200;51.488;6.668;2023-09-18T15:04:14;24.90;99.90
22071;DHT22;11200;51.488;6.668;2023-09-18T15:06:40;24.90;99.90
22071;DHT22;11200;51.488;6.668;2023-09-18T15:09:05;24.60;99.90
22071;DHT22;11200;51.488;6.668;2023-09-18T15:11:33;24.80;99.90
22071;DHT22;11200;51.488;6.668;2023-09-18T15:14:01;24.40;99.90
22071;DHT22;11200;51.488;6.668;2023-09-18T15:16:27;24.70;99.90
22071;DHT22;11200;51.488;6.668;2023-09-18T15:18:54;24.40;99.90
22071;DHT22;11200;51.488;6.668;2023-09-18T15:21:20;24.30;99.90
22071;DHT22;11200;51.488;6.668;2023-09-18T15:23:46;24.20;99.90
22071;DHT22;11200;51.488;6.668;2023-09-18T15:26:11;24.50;99.90
22071;DHT22;11200;51.488;6.668;2023-09-18T15:28:37;24.30;99.90
22071;DHT22;11200;51.488;6.668;2023-09-18T15:31:03;24.70;99.90
22071;DHT22;11200;51.488;6.668;2023-09-18T15:33:28;24.70;99.90
22071;DHT22;11200;51.488;6.668;2023-09-18T15:35:54;24.00;99.90
22071;DHT22;11200;51.488;6.668;2023-09-18T15:38:20;24.00;99.90
22071;DHT22;11200;51.488;6.668;2023-09-18T15:40:49;23.90;99.90
22071;DHT22;11200;51.488;6.668;2023-09-18T15:43:15;23.90;99.90
22071;DHT22;11200;51.488;6.668;2023-09-18T15:45:43;24.00;99.90
22071;DHT22;11200;51.488;6.668;2023-09-18T15:48:08;24.00;99.90
22071;DHT22;11200;51.488;6.668;2023-09-18T15:50:34;23.80;99.90
22071;DHT22;11200;51.488;6.668;2023-09-18T15:53:00;24.50;99.90